This is the latest recevied weather packets stored in our database for station/object PY5KT-13. If no packets are shown the sender has not sent any weather packets the latest 1 day(s).
| Time | Temp. | Humidity | Pressure | Rain* | Wind** | Luminosity | Snow |
|---|---|---|---|---|---|---|---|
| 1778086457 | 29.44° C | 46% | 1021.9 hPa | 0 mm | - | 144 W/m² | - |
| 1778086155 | 31.11° C | 43% | 1021.9 hPa | 0 mm | - | 374 W/m² | - |
| 1778085853 | 30° C | 45% | 1022 hPa | 0 mm | - | 630 W/m² | - |
| 1778084043 | 30° C | 43% | 1022.3 hPa | 0 mm | - | 597 W/m² | - |
| 1778083741 | 30° C | 43% | 1022.4 hPa | 0 mm | - | 604 W/m² | - |
| 1778081629 | 30° C | 47% | 1023.3 hPa | 0 mm | - | 573 W/m² | - |
| 1778081327 | 28.89° C | 50% | 1023.4 hPa | 0 mm | - | 642 W/m² | - |
| 1778078610 | 27.78° C | 54% | 1024.1 hPa | 0 mm | - | 524 W/m² | - |
| 1778078308 | 28.33° C | 54% | 1024.1 hPa | 0 mm | - | 476 W/m² | - |
| 1778077704 | 27.22° C | 56% | 1024.3 hPa | 0 mm | - | 508 W/m² | - |
| 1778077101 | 27.78° C | 53% | 1024.4 hPa | 0 mm | - | 447 W/m² | - |
| 1778076196 | 26.67° C | 58% | 1024.5 hPa | 0 mm | - | 556 W/m² | - |
| 1778075291 | 27.22° C | 57% | 1024.7 hPa | 0 mm | - | 568 W/m² | - |
| 1778074989 | 27.22° C | 58% | 1024.8 hPa | 0 mm | - | 486 W/m² | - |
| 1778073176 | 26.67° C | 65% | 1025 hPa | 0 mm | - | 419 W/m² | - |
| 1778072874 | 27.22° C | 65% | 1025.1 hPa | 0 mm | - | 442 W/m² | - |
| 1778072572 | 26.67° C | 67% | 1025.1 hPa | 0 mm | - | 436 W/m² | - |
| 1778072270 | 25.56° C | 72% | 1025.2 hPa | 0 mm | - | 431 W/m² | - |
| 1778071968 | 26.67° C | 66% | 1025.2 hPa | 0 mm | - | 400 W/m² | - |
| 1778071666 | 26.11° C | 69% | 1025.1 hPa | 0 mm | - | 404 W/m² | - |
| 1778071364 | 25.56° C | 71% | 1025.1 hPa | 0 mm | - | 408 W/m² | - |
| 1778069854 | 23.89° C | 76% | 1024.9 hPa | 0 mm | - | 357 W/m² | - |
| 1778069251 | 24.44° C | 72% | 1025 hPa | 0 mm | - | 344 W/m² | - |
| 1778068647 | 22.22° C | 78% | 1025 hPa | 0 mm | - | 327 W/m² | - |
| 1778068345 | 22.78° C | 79% | 1024.9 hPa | 0 mm | - | 318 W/m² | - |
* Rain latest hour (hover to see other rain measurements)
** Current wind speed in m/s (hover to see current wind gust speed)